Terminal Aerodrome Forecast
Issued by NWS

Home | Current Version | Previous Version | Text Only | Print | Product List | Glossary On
Versions: 1 2 3 4 5 6 7 8 9 10 11 12 13 14 15 16 17 18 19 20 21 22 23 24 25 26 27 28 29 30 31
000
FTUS43 KLOT 311400 AAA
TAFGYY
TAF AMD
KGYY 311412Z 3114/0112 33025G34KT 6SM -SHRASN OVC025
      TEMPO 3114/3116 3SM -SHSN OVC017
     FM311600 36030G42KT 4SM RASN SCT009 BKN015 OVC025
      TEMPO 3118/3122 1SM TSRASN OVC009CB
     FM312200 36030G40KT 2SM -SHRASN BKN010 OVC020
     FM010200 36025G35KT 4SM RASN BKN015 OVC025
     FM010600 02020G30KT P6SM VCSH BKN020 OVC030=

USA.gov is the U.S. government's official web portal to all federal, state and local government web resources and services.